createdAt,value
2019-02-07T00:00:35.971Z,97769.13
2019-02-07T00:01:39.662Z,97765.95
2019-02-07T00:02:43.298Z,97766.20
2019-02-07T00:03:46.934Z,97760.34
2019-02-07T00:04:50.604Z,97761.94
2019-02-07T00:05:54.337Z,97767.00
2019-02-07T00:06:58.054Z,97767.02
2019-02-07T00:08:02.375Z,97766.75
2019-02-07T00:09:08.419Z,97767.81
2019-02-07T00:10:15.136Z,97765.69
2019-02-07T00:11:18.776Z,97765.43
2019-02-07T00:12:22.409Z,97766.97
2019-02-07T00:13:26.056Z,97765.13
2019-02-07T00:14:39.528Z,97763.83
2019-02-07T00:15:36.639Z,97763.83
2019-02-07T00:16:40.537Z,97767.30
2019-02-07T00:17:44.375Z,97764.89
2019-02-07T00:18:48.052Z,97765.99
2019-02-07T00:19:51.688Z,97764.91
2019-02-07T00:20:55.470Z,97760.95
2019-02-07T00:21:59.032Z,97762.01
2019-02-07T00:23:02.965Z,97760.98
2019-02-07T00:24:07.066Z,97760.98
2019-02-07T00:25:11.209Z,97757.23
2019-02-07T00:26:14.858Z,97760.18
2019-02-07T00:27:18.498Z,97757.23
2019-02-07T00:28:22.129Z,97755.64
2019-02-07T00:29:25.787Z,97752.20
2019-02-07T00:30:29.439Z,97751.95
2019-02-07T00:31:33.220Z,97751.41
2019-02-07T00:32:36.852Z,97752.73
2019-02-07T00:33:40.491Z,97752.49
2019-02-07T00:34:44.123Z,97755.14
2019-02-07T00:35:47.762Z,97755.69
2019-02-07T00:36:51.438Z,97755.40
2019-02-07T00:37:55.808Z,97755.14
2019-02-07T00:38:59.446Z,97751.97
2019-02-07T00:40:03.091Z,97750.91
2019-02-07T00:41:06.828Z,97750.63
2019-02-07T00:42:10.484Z,97752.49
2019-02-07T00:43:15.061Z,97755.39
2019-02-07T00:44:18.704Z,97756.19
2019-02-07T00:45:22.337Z,97755.14
2019-02-07T00:46:26.048Z,97762.88
2019-02-07T00:47:29.719Z,97755.97
2019-02-07T00:48:33.357Z,97763.42
2019-02-07T00:49:36.991Z,97760.50
2019-02-07T00:50:40.628Z,97766.58
2019-02-07T00:51:44.439Z,97763.63
2019-02-07T00:52:48.599Z,97771.34
2019-02-07T00:53:52.237Z,97766.04
2019-02-07T00:54:55.878Z,97766.30
2019-02-07T00:55:59.525Z,97767.08
2019-02-07T00:57:03.148Z,97767.89
2019-02-07T00:58:07.259Z,97770.03
2019-02-07T00:59:10.896Z,97765.55
2019-02-07T01:00:18.129Z,97764.47
2019-02-07T01:01:21.766Z,97769.52
2019-02-07T01:02:25.397Z,97770.86
2019-02-07T01:03:29.168Z,97769.78
2019-02-07T01:04:33.033Z,97773.23
2019-02-07T01:05:36.736Z,97771.91
2019-02-07T01:06:40.364Z,97766.07
2019-02-07T01:07:45.471Z,97773.48
2019-02-07T01:08:49.212Z,97774.81
2019-02-07T01:09:52.846Z,97772.19
2019-02-07T01:10:56.593Z,97775.36
2019-02-07T01:12:00.234Z,97773.22
2019-02-07T01:13:04.376Z,97773.23
2019-02-07T01:14:08.046Z,97773.23
2019-02-07T01:15:13.392Z,97771.62
2019-02-07T01:16:17.022Z,97770.85
2019-02-07T01:17:20.850Z,97769.80
2019-02-07T01:18:24.514Z,97769.53
2019-02-07T01:19:28.685Z,97770.30
2019-02-07T01:20:32.633Z,97775.87
2019-02-07T01:21:36.264Z,97773.50
2019-02-07T01:22:40.488Z,97772.71
2019-02-07T01:23:44.199Z,97769.77
2019-02-07T01:24:47.865Z,97766.86
2019-02-07T01:25:51.573Z,97768.48
2019-02-07T01:26:55.208Z,97768.75
2019-02-07T01:27:58.908Z,97771.12
2019-02-07T01:29:02.540Z,97774.55
2019-02-07T01:30:09.195Z,97773.23
2019-02-07T01:31:12.907Z,97780.14
2019-02-07T01:32:16.533Z,97776.14
2019-02-07T01:33:20.553Z,97765.80
2019-02-07T01:34:24.560Z,97770.83
2019-02-07T01:35:28.212Z,97776.16
2019-02-07T01:36:31.849Z,97776.16
2019-02-07T01:37:35.863Z,97774.28
2019-02-07T01:38:39.500Z,97774.28
2019-02-07T01:39:43.530Z,97769.23
2019-02-07T01:40:47.203Z,97774.80
2019-02-07T01:41:51.224Z,97780.91
2019-02-07T01:42:55.856Z,97773.75
2019-02-07T01:43:59.584Z,97778.77
2019-02-07T01:45:12.778Z,97781.70
2019-02-07T01:46:08.843Z,97777.97
2019-02-07T01:47:12.479Z,97775.31
2019-02-07T01:48:16.109Z,97777.72
2019-02-07T01:49:19.745Z,97775.05
2019-02-07T01:50:26.932Z,97777.48
2019-02-07T01:51:30.594Z,97778.56
2019-02-07T01:52:34.615Z,97771.12
2019-02-07T01:53:38.250Z,97772.72
2019-02-07T01:54:41.897Z,97775.61
2019-02-07T01:55:45.894Z,97767.39
2019-02-07T01:56:49.578Z,97774.25
2019-02-07T01:57:53.223Z,97770.54
2019-02-07T01:58:56.861Z,97775.60
2019-02-07T02:00:00.498Z,97778.25
2019-02-07T02:01:04.299Z,97777.48
2019-02-07T02:02:07.947Z,97782.80
2019-02-07T02:03:11.585Z,97784.14
2019-02-07T02:04:15.213Z,97781.48
2019-02-07T02:05:19.849Z,97782.80
2019-02-07T02:06:23.822Z,97783.84
2019-02-07T02:07:27.937Z,97783.86
2019-02-07T02:08:31.576Z,97784.66
2019-02-07T02:09:35.544Z,97785.16
2019-02-07T02:10:39.285Z,97784.36
2019-02-07T02:11:42.917Z,97786.77
2019-02-07T02:12:46.703Z,97792.33
2019-02-07T02:13:50.333Z,97786.22
2019-02-07T02:14:53.962Z,97786.50
2019-02-07T02:15:57.593Z,97783.85
2019-02-07T02:17:01.233Z,97784.91
2019-02-07T02:18:05.112Z,97785.19
2019-02-07T02:19:08.748Z,97778.52
2019-02-07T02:20:14.982Z,97780.89
2019-02-07T02:21:18.889Z,97773.99
2019-02-07T02:22:22.598Z,97774.02
2019-02-07T02:23:26.274Z,97773.73
2019-02-07T02:24:29.991Z,97778.26
2019-02-07T02:25:33.625Z,97772.42
2019-02-07T02:26:37.259Z,97770.31
2019-02-07T02:27:41.192Z,97771.89
2019-02-07T02:28:44.878Z,97772.19
2019-02-07T02:29:48.887Z,97770.08
2019-02-07T02:30:52.533Z,97768.47
2019-02-07T02:31:56.216Z,97768.18
2019-02-07T02:33:00.071Z,97771.09
2019-02-07T02:34:04.253Z,97772.14
2019-02-07T02:35:08.695Z,97772.66
2019-02-07T02:36:12.617Z,97769.49
2019-02-07T02:37:16.247Z,97774.05
2019-02-07T02:38:19.875Z,97773.25
2019-02-07T02:39:23.548Z,97769.28
2019-02-07T02:40:27.275Z,97771.14
2019-02-07T02:41:30.920Z,97769.00
2019-02-07T02:42:34.845Z,97769.27
2019-02-07T02:43:38.480Z,97771.93
2019-02-07T02:44:42.145Z,97770.60
2019-02-07T02:45:45.783Z,97770.58
2019-02-07T02:46:49.438Z,97766.87
2019-02-07T02:47:53.665Z,97775.09
2019-02-07T02:48:57.506Z,97763.15
2019-02-07T02:50:01.478Z,97766.05
2019-02-07T02:51:05.619Z,97764.99
2019-02-07T02:52:09.262Z,97768.45
2019-02-07T02:53:12.900Z,97766.08
2019-02-07T02:54:33.476Z,97771.93
2019-02-07T02:55:39.011Z,97771.38
2019-02-07T02:56:42.642Z,97769.80
2019-02-07T02:57:46.269Z,97766.34
2019-02-07T02:58:49.905Z,97770.31
2019-02-07T02:59:53.644Z,97768.47
2019-02-07T03:01:02.188Z,97767.67
2019-02-07T03:02:07.962Z,97768.48
2019-02-07T03:03:19.562Z,97768.47
2019-02-07T03:04:24.839Z,97769.30
2019-02-07T03:05:36.200Z,97767.95
2019-02-07T03:06:41.498Z,97774.08
2019-02-07T03:07:52.682Z,97771.42
2019-02-07T03:09:13.852Z,97763.70
2019-02-07T03:10:19.124Z,97772.98
2019-02-07T03:11:39.858Z,97769.81
2019-02-07T03:12:48.228Z,97771.64
2019-02-07T03:13:53.533Z,97774.07
2019-02-07T03:16:54.522Z,97774.58
2019-02-07T03:18:15.979Z,97781.77
2019-02-07T03:19:24.217Z,97783.63
2019-02-07T03:20:35.920Z,97782.55
2019-02-07T03:23:16.322Z,97779.91
2019-02-07T03:24:27.615Z,97778.30
2019-02-07T03:25:32.886Z,97777.23
2019-02-07T03:26:54.206Z,97778.84
2019-02-07T03:28:08.688Z,97774.59
2019-02-07T03:29:19.755Z,97776.46
2019-02-07T03:30:41.701Z,97775.93
2019-02-07T03:32:02.151Z,97775.41
2019-02-07T03:33:13.112Z,97774.86
2019-02-07T03:34:18.385Z,97771.94
2019-02-07T03:35:39.727Z,97774.30
2019-02-07T03:36:47.699Z,97774.58
2019-02-07T03:37:53.006Z,97774.58
2019-02-07T03:39:07.560Z,97774.86
2019-02-07T03:40:15.339Z,97773.01
2019-02-07T03:42:52.069Z,97776.47
2019-02-07T03:44:12.884Z,97782.55
2019-02-07T03:45:33.321Z,97783.89
2019-02-07T03:46:50.357Z,97792.09
2019-02-07T03:48:04.623Z,97785.47
2019-02-07T03:49:22.201Z,97790.00
2019-02-07T03:50:33.782Z,97792.38
2019-02-07T03:51:39.553Z,97792.38
2019-02-07T03:52:44.824Z,97790.00
2019-02-07T03:53:53.204Z,97788.40
2019-02-07T03:55:01.592Z,97790.77
2019-02-07T03:56:19.304Z,97792.09
2019-02-07T03:57:27.122Z,97787.87
2019-02-07T04:00:00.871Z,97783.37
2019-02-07T04:01:15.385Z,97782.30
2019-02-07T04:02:30.230Z,97773.81
2019-02-07T04:03:35.504Z,97775.92
2019-02-07T04:04:55.949Z,97780.70
2019-02-07T04:06:17.559Z,97776.70
2019-02-07T04:07:39.240Z,97780.67
2019-02-07T04:08:56.531Z,97775.92
2019-02-07T04:10:04.709Z,97781.50
2019-02-07T04:11:16.029Z,97781.23
2019-02-07T04:12:30.352Z,97782.28
2019-02-07T04:13:44.518Z,97783.09
2019-02-07T04:14:55.392Z,97782.28
2019-02-07T04:16:16.194Z,97783.61
2019-02-07T04:17:24.270Z,97791.05
2019-02-07T04:18:38.817Z,97790.23
2019-02-07T04:19:46.670Z,97798.46
2019-02-07T04:21:01.121Z,97798.48
2019-02-07T04:22:06.800Z,97800.32
2019-02-07T04:23:23.924Z,97794.49
2019-02-07T04:24:35.315Z,97796.34
2019-02-07T04:25:52.625Z,97792.89
2019-02-07T04:27:14.097Z,97794.23
2019-02-07T04:28:22.157Z,97797.69
2019-02-07T04:29:45.447Z,97796.63
2019-02-07T04:30:53.719Z,97792.09
2019-02-07T04:32:01.880Z,97793.70
2019-02-07T04:33:13.366Z,97791.56
2019-02-07T04:34:21.220Z,97797.14
2019-02-07T04:35:29.364Z,97794.75
2019-02-07T04:36:34.625Z,97798.74
2019-02-07T04:37:56.347Z,97800.05
2019-02-07T04:39:07.875Z,97791.58
2019-02-07T04:40:17.045Z,97796.36
2019-02-07T04:41:28.470Z,97792.65
2019-02-07T04:42:33.752Z,97791.84
2019-02-07T04:43:39.315Z,97793.98
2019-02-07T04:45:01.189Z,97799.80
2019-02-07T04:46:12.256Z,97793.98
2019-02-07T04:47:20.521Z,97797.14
2019-02-07T04:48:31.747Z,97792.11
2019-02-07T04:49:40.161Z,97798.74
2019-02-07T04:50:54.291Z,97798.47
2019-02-07T04:52:08.384Z,97800.86
2019-02-07T04:53:28.934Z,97800.86
2019-02-07T04:54:34.204Z,97806.43
2019-02-07T04:55:48.137Z,97800.59
2019-02-07T04:57:02.583Z,97803.00
2019-02-07T04:58:23.047Z,97806.97
2019-02-07T04:59:28.322Z,97809.36
2019-02-07T05:00:49.809Z,97812.01
2019-02-07T05:02:01.141Z,97804.59
2019-02-07T05:03:07.002Z,97802.20
2019-02-07T05:04:21.183Z,97807.50
2019-02-07T05:05:27.028Z,97808.03
2019-02-07T05:06:32.302Z,97801.39
2019-02-07T05:07:37.623Z,97807.24
2019-02-07T05:08:42.894Z,97805.64
2019-02-07T05:10:00.514Z,97806.17
2019-02-07T05:11:21.782Z,97804.83
2019-02-07T05:12:32.316Z,97809.08
2019-02-07T05:13:49.808Z,97810.42
2019-02-07T05:18:07.619Z,97824.19
2019-02-07T05:19:29.775Z,97818.89
2019-02-07T05:20:37.885Z,97819.67
2019-02-07T05:21:43.184Z,97820.47
2019-02-07T05:22:54.299Z,97821.56
2019-02-07T05:24:13.518Z,97818.37
2019-02-07T05:25:18.831Z,97816.78
2019-02-07T05:26:27.057Z,97817.31
2019-02-07T05:27:38.279Z,97817.83
2019-02-07T05:28:50.410Z,97821.79
2019-02-07T05:30:12.349Z,97818.09
2019-02-07T05:31:17.672Z,97816.25
2019-02-07T05:32:22.955Z,97823.13
2019-02-07T05:33:28.226Z,97824.73
2019-02-07T05:34:45.776Z,97819.69
2019-02-07T05:35:54.035Z,97828.45
2019-02-07T05:37:15.835Z,97831.88
2019-02-07T05:38:33.579Z,97827.90
2019-02-07T05:39:53.990Z,97830.29
2019-02-07T05:41:08.270Z,97827.90
2019-02-07T05:42:16.893Z,97828.67
2019-02-07T05:43:40.640Z,97833.17
2019-02-07T05:44:45.939Z,97832.38
2019-02-07T05:45:54.107Z,97833.47
2019-02-07T05:47:17.576Z,97829.48
2019-02-07T05:48:31.728Z,97831.05
2019-02-07T05:49:48.970Z,97829.47
2019-02-07T05:50:57.084Z,97828.67
2019-02-07T05:52:19.065Z,97827.90
2019-02-07T05:53:24.341Z,97834.80
2019-02-07T05:54:38.808Z,97836.63
2019-02-07T05:55:50.140Z,97835.29
2019-02-07T05:56:55.485Z,97830.53
2019-02-07T05:58:00.778Z,97835.55
2019-02-07T05:59:06.171Z,97830.23
2019-02-07T06:00:17.015Z,97833.14
2019-02-07T06:01:25.263Z,97836.59
2019-02-07T06:02:30.541Z,97837.11
2019-02-07T06:03:53.938Z,97835.54
2019-02-07T06:05:05.604Z,97834.19
2019-02-07T06:06:16.790Z,97830.98
2019-02-07T06:07:38.569Z,97832.31
2019-02-07T06:08:47.073Z,97829.44
2019-02-07T06:09:52.555Z,97831.78
2019-02-07T06:11:04.197Z,97832.05
2019-02-07T06:12:26.238Z,97827.52
2019-02-07T06:13:47.821Z,97833.88
2019-02-07T06:14:53.108Z,97845.79
2019-02-07T06:16:16.400Z,97841.27
2019-02-07T06:17:24.688Z,97850.81
2019-02-07T06:18:46.341Z,97839.66
2019-02-07T06:20:09.906Z,97842.61
2019-02-07T06:21:18.225Z,97847.64
2019-02-07T06:22:41.577Z,97841.02
2019-02-07T06:23:46.863Z,97845.28
2019-02-07T06:24:55.141Z,97850.81
2019-02-07T06:26:12.520Z,97851.31
2019-02-07T06:27:20.639Z,97846.81
2019-02-07T06:28:28.793Z,97854.24
2019-02-07T06:29:37.296Z,97854.27
2019-02-07T06:30:54.503Z,97856.63
2019-02-07T06:31:59.831Z,97857.19
2019-02-07T06:33:13.725Z,97849.51
2019-02-07T06:34:29.354Z,97854.52
2019-02-07T06:35:40.769Z,97851.86
2019-02-07T06:36:52.059Z,97849.54
2019-02-07T06:37:57.375Z,97859.11
2019-02-07T06:39:05.399Z,97858.30
2019-02-07T06:40:13.338Z,97859.09
2019-02-07T06:41:21.743Z,97862.80
2019-02-07T06:42:33.401Z,97855.94
2019-02-07T06:43:47.372Z,97853.80
2019-02-07T06:45:08.824Z,97857.50
2019-02-07T06:46:14.278Z,97856.45
2019-02-07T06:47:37.940Z,97857.27
2019-02-07T06:48:59.319Z,97860.19
2019-02-07T06:50:19.447Z,97863.38
2019-02-07T06:51:39.614Z,97864.17
2019-02-07T06:52:59.867Z,97872.39
2019-02-07T06:54:14.251Z,97865.79
2019-02-07T06:55:19.637Z,97864.75
2019-02-07T06:56:24.927Z,97866.33
2019-02-07T06:57:30.602Z,97862.88
2019-02-07T06:58:45.031Z,97866.36
2019-02-07T06:59:57.467Z,97867.17
2019-02-07T07:01:05.760Z,97869.84
2019-02-07T07:02:17.126Z,97863.22
2019-02-07T07:03:22.607Z,97871.19
2019-02-07T07:04:44.483Z,97865.10
2019-02-07T07:06:05.176Z,97865.09
2019-02-07T07:07:29.627Z,97865.05
2019-02-07T07:08:34.914Z,97856.77
2019-02-07T07:09:43.240Z,97858.05
2019-02-07T07:10:48.528Z,97850.86
2019-02-07T07:11:56.819Z,97853.22
2019-02-07T07:13:02.097Z,97850.03
2019-02-07T07:14:19.503Z,97850.02
2019-02-07T07:15:31.004Z,97846.51
2019-02-07T07:16:48.599Z,97846.95
2019-02-07T07:18:03.091Z,97842.94
2019-02-07T07:19:12.434Z,97841.73
2019-02-07T07:20:34.287Z,97842.98
2019-02-07T07:21:51.537Z,97839.98
2019-02-07T07:23:03.100Z,97837.77
2019-02-07T07:24:24.492Z,97835.56
2019-02-07T07:25:46.324Z,97832.58
2019-02-07T07:26:57.610Z,97837.06
2019-02-07T07:28:05.820Z,97837.41
2019-02-07T07:29:27.270Z,97834.05
2019-02-07T07:30:41.523Z,97840.94
2019-02-07T07:31:58.743Z,97838.44
2019-02-07T07:33:06.993Z,97838.63
2019-02-07T07:34:30.245Z,97841.92
2019-02-07T07:35:35.522Z,97841.06
2019-02-07T07:36:55.822Z,97845.63
2019-02-07T07:38:13.450Z,97845.83
2019-02-07T07:39:31.325Z,97843.82
2019-02-07T07:40:36.597Z,97845.67
2019-02-07T07:41:51.404Z,97844.53
2019-02-07T07:43:12.062Z,97843.14
2019-02-07T07:44:17.339Z,97847.07
2019-02-07T07:45:22.623Z,97850.38
2019-02-07T07:46:44.067Z,97859.23
2019-02-07T07:47:54.947Z,97864.83
2019-02-07T07:49:00.263Z,97878.66
2019-02-07T07:50:09.372Z,97880.60
2019-02-07T07:51:26.286Z,97886.89
2019-02-07T07:52:40.315Z,97886.25
2019-02-07T07:54:01.725Z,97889.34
2019-02-07T07:55:08.599Z,97883.90
2019-02-07T07:56:16.825Z,97883.79
2019-02-07T07:57:27.749Z,97886.84
2019-02-07T07:58:33.137Z,97881.70
2019-02-07T07:59:44.339Z,97883.20
2019-02-07T08:01:05.773Z,97886.91
2019-02-07T08:02:17.468Z,97882.77
2019-02-07T08:03:23.123Z,97881.97
2019-02-07T08:04:31.383Z,97888.20
2019-02-07T08:05:53.574Z,97888.31
2019-02-07T08:06:58.869Z,97886.66
2019-02-07T08:08:20.398Z,97886.95
2019-02-07T08:09:25.667Z,97887.64
2019-02-07T08:10:31.087Z,97882.29
2019-02-07T08:11:48.683Z,97886.70
2019-02-07T08:13:10.238Z,97887.13
2019-02-07T08:14:18.340Z,97883.58
2019-02-07T08:15:23.569Z,97877.75
2019-02-07T08:16:28.875Z,97882.94
2019-02-07T08:17:47.595Z,97883.76
2019-02-07T08:18:56.317Z,97886.56
2019-02-07T08:20:10.590Z,97882.05
2019-02-07T08:21:31.863Z,97882.27
2019-02-07T08:22:53.936Z,97887.13
2019-02-07T08:24:15.886Z,97883.92
2019-02-07T08:25:24.164Z,97877.19
2019-02-07T08:26:29.443Z,97882.70
2019-02-07T08:27:37.692Z,97885.94
2019-02-07T08:28:59.143Z,97885.65
2019-02-07T08:30:07.472Z,97890.11
2019-02-07T08:31:24.582Z,97890.91
2019-02-07T08:32:29.860Z,97899.22
2019-02-07T08:33:35.141Z,97897.23
2019-02-07T08:34:40.448Z,97896.77
2019-02-07T08:35:46.078Z,97883.41
2019-02-07T08:36:51.714Z,97879.52
2019-02-07T08:37:59.801Z,97879.12
2019-02-07T08:39:14.120Z,97874.03
2019-02-07T08:40:22.489Z,97887.00
2019-02-07T08:41:33.775Z,97887.21
2019-02-07T08:42:42.140Z,97876.73
2019-02-07T08:44:03.847Z,97875.72
2019-02-07T08:45:11.861Z,97878.70
2019-02-07T08:46:26.435Z,97871.61
2019-02-07T08:47:31.775Z,97868.84
2019-02-07T08:48:40.289Z,97869.81
2019-02-07T08:49:54.245Z,97869.81
2019-02-07T08:50:59.520Z,97870.11
2019-02-07T08:52:21.229Z,97868.60
2019-02-07T08:53:26.679Z,97870.55
2019-02-07T08:54:48.114Z,97860.55
2019-02-07T08:55:56.216Z,97867.20
2019-02-07T08:57:10.629Z,97858.93
2019-02-07T08:58:32.680Z,97858.93
2019-02-07T08:59:49.775Z,97852.69
2019-02-07T09:01:11.586Z,97846.05
2019-02-07T09:02:19.695Z,97844.71
2019-02-07T09:03:36.834Z,97854.05
2019-02-07T09:04:58.526Z,97852.36
2019-02-07T09:06:03.807Z,97852.36
2019-02-07T09:07:15.171Z,97853.41
2019-02-07T09:08:38.670Z,97851.28
2019-02-07T09:09:49.768Z,97847.88
2019-02-07T09:11:03.964Z,97829.87
2019-02-07T09:12:15.242Z,97834.59
2019-02-07T09:13:20.974Z,97851.48
2019-02-07T09:14:35.609Z,97851.31
2019-02-07T09:15:50.719Z,97842.28
2019-02-07T09:17:08.026Z,97841.02
2019-02-07T09:18:13.496Z,97851.27
2019-02-07T09:19:37.216Z,97857.89
2019-02-07T09:20:54.079Z,97858.62
2019-02-07T09:22:11.095Z,97858.27
2019-02-07T09:23:31.253Z,97854.83
2019-02-07T09:24:52.741Z,97852.29
2019-02-07T09:26:14.430Z,97854.92
2019-02-07T09:27:29.140Z,97850.94
2019-02-07T09:28:40.296Z,97853.44
2019-02-07T09:29:54.837Z,97848.18
2019-02-07T09:31:02.853Z,97853.88
2019-02-07T09:32:23.344Z,97855.05
2019-02-07T09:33:47.886Z,97849.81
2019-02-07T09:34:55.997Z,97851.09
2019-02-07T09:36:20.145Z,97842.34
2019-02-07T09:37:42.217Z,97846.82
2019-02-07T09:38:53.300Z,97848.86
2019-02-07T09:40:13.667Z,97846.59
2019-02-07T09:41:21.991Z,97842.69
2019-02-07T09:42:30.016Z,97846.19
2019-02-07T09:43:35.285Z,97839.96
2019-02-07T09:44:56.786Z,97839.96
2019-02-07T09:46:08.073Z,97838.00
2019-02-07T09:47:25.669Z,97838.77
2019-02-07T09:48:39.955Z,97836.80
2019-02-07T09:49:45.236Z,97837.36
2019-02-07T09:51:02.597Z,97833.33
2019-02-07T09:52:10.776Z,97835.82
2019-02-07T09:53:23.789Z,97826.00
2019-02-07T09:54:25.614Z,97822.38
2019-02-07T09:55:47.393Z,97825.86
2019-02-07T09:56:58.845Z,97831.40
2019-02-07T09:58:20.896Z,97831.40
2019-02-07T09:59:42.429Z,97827.56
2019-02-07T10:00:50.669Z,97826.56
2019-02-07T10:01:58.998Z,97811.87
2019-02-07T10:03:04.822Z,97811.87
2019-02-07T10:04:12.936Z,97815.81
2019-02-07T10:05:18.207Z,97813.16
2019-02-07T10:06:39.614Z,97809.12
2019-02-07T10:07:53.914Z,97804.16
2019-02-07T10:09:02.251Z,97803.08
2019-02-07T10:10:22.796Z,97807.48
2019-02-07T10:11:43.392Z,97800.98
2019-02-07T10:12:57.464Z,97798.53
2019-02-07T10:14:19.786Z,97795.20
2019-02-07T10:15:27.900Z,97793.78
2019-02-07T10:16:35.892Z,97793.98
2019-02-07T10:17:56.436Z,97791.50
2019-02-07T10:19:16.676Z,97783.71
2019-02-07T10:20:21.998Z,97784.39
2019-02-07T10:21:43.742Z,97784.56
2019-02-07T10:22:55.113Z,97781.23
2019-02-07T10:24:00.422Z,97778.20
2019-02-07T10:25:13.403Z,97775.84
2019-02-07T10:26:34.885Z,97763.27
2019-02-07T10:27:42.748Z,97767.45
2019-02-07T10:28:53.918Z,97767.08
2019-02-07T10:30:01.963Z,97770.56
2019-02-07T10:31:15.843Z,97763.85
2019-02-07T10:32:24.211Z,97756.95
2019-02-07T10:33:45.412Z,97761.30
2019-02-07T10:35:07.616Z,97761.43
2019-02-07T10:36:15.711Z,97759.36
2019-02-07T10:37:40.572Z,97758.15
2019-02-07T10:38:45.848Z,97758.28
2019-02-07T10:40:02.858Z,97764.31
2019-02-07T10:41:11.257Z,97763.38
2019-02-07T10:42:22.867Z,97763.97
2019-02-07T10:43:28.143Z,97763.81
2019-02-07T10:44:49.676Z,97761.28
2019-02-07T10:45:55.648Z,97758.26
2019-02-07T10:47:08.624Z,97759.52
2019-02-07T10:48:25.620Z,97749.44
2019-02-07T10:49:34.240Z,97751.58
2019-02-07T10:50:42.450Z,97748.11
2019-02-07T10:51:56.808Z,97748.03
2019-02-07T10:53:18.548Z,97749.39
2019-02-07T10:54:26.766Z,97752.27
2019-02-07T10:55:35.200Z,97765.31
2019-02-07T10:56:40.654Z,97752.86
2019-02-07T10:58:02.398Z,97748.91
2019-02-07T10:59:19.633Z,97753.70
2019-02-07T11:00:25.798Z,97753.67
2019-02-07T11:01:32.515Z,97749.36
2019-02-07T11:02:53.947Z,97749.27
2019-02-07T11:03:59.426Z,97756.84
2019-02-07T11:05:20.961Z,97752.97
2019-02-07T11:06:44.566Z,97753.98
2019-02-07T11:07:55.615Z,97747.45
2019-02-07T11:09:15.081Z,97751.25
2019-02-07T11:10:38.287Z,97751.34
2019-02-07T11:11:56.252Z,97746.91
2019-02-07T11:13:17.724Z,97749.28
2019-02-07T11:14:22.999Z,97747.27
2019-02-07T11:15:43.425Z,97749.59
2019-02-07T11:17:07.258Z,97741.44
2019-02-07T11:18:29.109Z,97735.27
2019-02-07T11:19:34.859Z,97747.21
2019-02-07T11:20:52.940Z,97741.27
2019-02-07T11:22:17.028Z,97736.84
2019-02-07T11:23:25.060Z,97734.16
2019-02-07T11:24:45.501Z,97741.95
2019-02-07T11:25:53.843Z,97741.95
2019-02-07T11:27:11.005Z,97741.64
2019-02-07T11:28:25.939Z,97741.64
2019-02-07T11:29:31.220Z,97721.75
2019-02-07T11:30:58.795Z,97733.37
2019-02-07T11:32:06.631Z,97733.37
2019-02-07T11:33:15.106Z,97728.52
2019-02-07T11:34:23.108Z,97737.22
2019-02-07T11:35:30.877Z,97730.62
2019-02-07T11:36:38.590Z,97725.34
2019-02-07T11:38:01.705Z,97725.34
2019-02-07T11:39:29.934Z,97720.16
2019-02-07T11:40:41.324Z,97724.48
2019-02-07T11:41:55.393Z,97723.75
2019-02-07T11:47:31.951Z,97727.87
2019-02-07T11:48:43.392Z,97725.59
2019-02-07T11:49:57.256Z,97725.59
2019-02-07T11:51:20.388Z,97722.52
2019-02-07T11:52:28.366Z,97730.27
2019-02-07T11:53:42.905Z,97730.27
2019-02-07T11:54:48.177Z,97736.06
2019-02-07T11:55:53.516Z,97738.95
2019-02-07T11:57:05.095Z,97736.91
2019-02-07T11:58:13.339Z,97735.66
2019-02-07T11:59:23.199Z,97735.66
2019-02-07T12:00:34.349Z,97721.08
2019-02-07T12:01:54.302Z,97724.17
2019-02-07T12:03:14.881Z,97723.47
2019-02-07T12:04:29.049Z,97717.03
2019-02-07T12:05:40.302Z,97715.42
2019-02-07T12:07:01.776Z,97720.12
2019-02-07T12:08:10.034Z,97719.07
2019-02-07T12:09:18.041Z,97719.37
2019-02-07T12:10:29.114Z,97719.37
2019-02-07T12:11:48.590Z,97724.86
2019-02-07T12:13:02.731Z,97726.59
2019-02-07T12:14:24.886Z,97720.70
2019-02-07T12:15:48.485Z,97715.55
2019-02-07T12:17:10.620Z,97717.25
2019-02-07T12:18:32.185Z,97714.84
2019-02-07T12:19:49.615Z,97717.77
2019-02-07T12:21:01.110Z,97711.30
2019-02-07T12:22:18.272Z,97712.11
2019-02-07T12:23:26.108Z,97709.82
2019-02-07T12:24:34.558Z,97717.19
2019-02-07T12:25:56.257Z,97712.56
2019-02-07T12:27:10.572Z,97717.14
2019-02-07T12:28:15.851Z,97710.53
2019-02-07T12:29:21.429Z,97714.16
2019-02-07T12:30:35.523Z,97707.66
2019-02-07T12:31:49.746Z,97713.11
2019-02-07T12:32:55.403Z,97704.66
2019-02-07T12:34:00.678Z,97707.37
2019-02-07T12:35:14.490Z,97712.51
2019-02-07T12:36:19.762Z,97714.51
2019-02-07T12:37:36.992Z,97699.34
2019-02-07T12:38:48.594Z,97699.34
2019-02-07T12:39:59.886Z,97704.22
2019-02-07T12:41:05.169Z,97707.77
2019-02-07T12:42:11.085Z,97705.73
2019-02-07T12:43:25.946Z,97704.95
2019-02-07T12:44:31.219Z,97704.95
2019-02-07T12:45:42.590Z,97705.38
2019-02-07T12:47:04.064Z,97709.40
2019-02-07T12:48:18.417Z,97710.31
2019-02-07T12:49:29.244Z,97712.87
2019-02-07T12:50:47.014Z,97710.80
2019-02-07T12:51:54.997Z,97706.30
2019-02-07T12:53:00.274Z,97711.23
2019-02-07T12:54:15.376Z,97703.81
2019-02-07T12:55:39.185Z,97706.00
2019-02-07T12:57:00.890Z,97704.09
2019-02-07T12:58:08.842Z,97712.81
2019-02-07T12:59:32.731Z,97706.27
2019-02-07T13:00:42.067Z,97710.47
2019-02-07T13:01:47.846Z,97709.48
2019-02-07T13:03:10.236Z,97703.07
2019-02-07T13:04:32.600Z,97703.07
2019-02-07T13:05:52.727Z,97708.23
2019-02-07T13:06:58.059Z,97712.41
2019-02-07T13:08:03.348Z,97706.53
2019-02-07T13:09:20.084Z,97706.53
2019-02-07T13:10:25.424Z,97705.55
2019-02-07T13:11:33.624Z,97701.60
2019-02-07T13:12:55.116Z,97697.48
2019-02-07T13:14:00.429Z,97700.10
2019-02-07T13:15:13.417Z,97697.95
2019-02-07T13:16:30.741Z,97693.59
2019-02-07T13:17:56.470Z,97687.13
2019-02-07T13:19:16.767Z,97692.57
2019-02-07T13:20:27.770Z,97692.57
2019-02-07T13:21:36.036Z,97688.70
2019-02-07T13:22:41.323Z,97665.80
2019-02-07T13:23:46.618Z,97681.57
2019-02-07T13:25:07.332Z,97689.48
2019-02-07T13:26:18.668Z,97679.86
2019-02-07T13:27:42.282Z,97679.86
2019-02-07T13:28:59.492Z,97691.73
2019-02-07T13:30:13.637Z,97686.54
2019-02-07T13:31:33.994Z,97693.81
2019-02-07T13:32:39.650Z,97693.78
2019-02-07T13:33:57.055Z,97691.16
2019-02-07T13:35:02.339Z,97786.66
2019-02-07T13:36:23.821Z,97684.02
2019-02-07T13:37:29.111Z,97702.33
2019-02-07T13:38:39.157Z,97691.76
2019-02-07T13:39:59.339Z,97691.20
2019-02-07T13:41:22.672Z,97695.30
2019-02-07T13:42:45.972Z,97695.30
2019-02-07T13:43:51.274Z,97687.42
2019-02-07T13:45:02.340Z,97680.97
2019-02-07T13:46:14.113Z,97680.97
2019-02-07T13:47:25.160Z,97687.47
2019-02-07T13:48:45.896Z,97696.37
2019-02-07T13:49:52.191Z,97693.92
2019-02-07T13:51:06.893Z,97698.73
2019-02-07T13:52:28.602Z,97694.89
2019-02-07T13:53:42.924Z,97697.27
2019-02-07T13:55:04.012Z,97685.53
2019-02-07T13:56:16.316Z,97696.70
2019-02-07T13:57:37.030Z,97693.47
2019-02-07T13:58:58.480Z,97688.16
2019-02-07T14:00:08.647Z,97685.36
2019-02-07T14:01:35.152Z,97693.41
2019-02-07T14:02:55.781Z,97690.27
2019-02-07T14:04:13.026Z,97695.84
2019-02-07T14:05:30.129Z,97692.45
2019-02-07T14:06:35.395Z,97692.56
2019-02-07T14:07:40.696Z,97690.58